sensor_id;sensor_type;location;lat;lon;timestamp;P1;durP1;ratioP1;P2;durP2;ratioP2
9773;SDS011;4926;42.670;23.316;2022-10-23T00:00:21;19.70;;;13.65;;
9773;SDS011;4926;42.670;23.316;2022-10-23T00:02:52;16.40;;;13.02;;
9773;SDS011;4926;42.670;23.316;2022-10-23T00:05:19;22.92;;;12.85;;
9773;SDS011;4926;42.670;23.316;2022-10-23T00:07:49;20.60;;;13.30;;
9773;SDS011;4926;42.670;23.316;2022-10-23T00:10:18;16.08;;;12.07;;
9773;SDS011;4926;42.670;23.316;2022-10-23T00:12:45;15.77;;;12.52;;
9773;SDS011;4926;42.670;23.316;2022-10-23T00:15:16;17.77;;;12.38;;
9773;SDS011;4926;42.670;23.316;2022-10-23T00:17:44;17.25;;;12.13;;
9773;SDS011;4926;42.670;23.316;2022-10-23T00:20:14;14.75;;;12.73;;
9773;SDS011;4926;42.670;23.316;2022-10-23T00:22:41;18.88;;;12.27;;
9773;SDS011;4926;42.670;23.316;2022-10-23T00:25:08;18.25;;;12.88;;
9773;SDS011;4926;42.670;23.316;2022-10-23T00:27:39;20.73;;;12.52;;
9773;SDS011;4926;42.670;23.316;2022-10-23T00:30:06;19.42;;;13.45;;
9773;SDS011;4926;42.670;23.316;2022-10-23T00:32:33;18.33;;;12.30;;
9773;SDS011;4926;42.670;23.316;2022-10-23T00:35:03;20.65;;;12.82;;
9773;SDS011;4926;42.670;23.316;2022-10-23T00:37:30;18.02;;;12.85;;
9773;SDS011;4926;42.670;23.316;2022-10-23T00:39:57;17.58;;;12.57;;
9773;SDS011;4926;42.670;23.316;2022-10-23T00:42:24;19.23;;;14.02;;
9773;SDS011;4926;42.670;23.316;2022-10-23T00:47:43;17.25;;;12.98;;
9773;SDS011;4926;42.670;23.316;2022-10-23T00:50:10;20.95;;;13.55;;
9773;SDS011;4926;42.670;23.316;2022-10-23T00:52:38;16.77;;;12.70;;
9773;SDS011;4926;42.670;23.316;2022-10-23T00:55:12;19.02;;;12.63;;
9773;SDS011;4926;42.670;23.316;2022-10-23T00:57:46;15.32;;;12.50;;
9773;SDS011;4926;42.670;23.316;2022-10-23T01:00:17;17.08;;;12.80;;
9773;SDS011;4926;42.670;23.316;2022-10-23T01:02:46;16.92;;;12.73;;
9773;SDS011;4926;42.670;23.316;2022-10-23T01:05:13;17.15;;;13.18;;
9773;SDS011;4926;42.670;23.316;2022-10-23T01:07:46;18.10;;;13.00;;
9773;SDS011;4926;42.670;23.316;2022-10-23T01:10:18;19.25;;;12.82;;
9773;SDS011;4926;42.670;23.316;2022-10-23T01:12:54;20.40;;;13.75;;
9773;SDS011;4926;42.670;23.316;2022-10-23T01:15:36;23.50;;;18.40;;
9773;SDS011;4926;42.670;23.316;2022-10-23T01:18:10;26.58;;;16.92;;
9773;SDS011;4926;42.670;23.316;2022-10-23T01:20:43;32.33;;;21.08;;
9773;SDS011;4926;42.670;23.316;2022-10-23T01:29:13;36.10;;;23.23;;
9773;SDS011;4926;42.670;23.316;2022-10-23T01:31:45;36.15;;;24.00;;
9773;SDS011;4926;42.670;23.316;2022-10-23T01:34:17;37.72;;;23.63;;
9773;SDS011;4926;42.670;23.316;2022-10-23T01:36:52;32.85;;;23.90;;
9773;SDS011;4926;42.670;23.316;2022-10-23T01:39:22;31.27;;;22.55;;
9773;SDS011;4926;42.670;23.316;2022-10-23T01:41:57;31.45;;;22.05;;
9773;SDS011;4926;42.670;23.316;2022-10-23T01:44:33;32.05;;;22.42;;
9773;SDS011;4926;42.670;23.316;2022-10-23T01:47:05;33.85;;;22.15;;
9773;SDS011;4926;42.670;23.316;2022-10-23T01:49:34;32.60;;;21.67;;
9773;SDS011;4926;42.670;23.316;2022-10-23T01:52:05;30.45;;;21.63;;
9773;SDS011;4926;42.670;23.316;2022-10-23T01:54:35;30.73;;;21.15;;
9773;SDS011;4926;42.670;23.316;2022-10-23T01:57:06;29.27;;;20.88;;
9773;SDS011;4926;42.670;23.316;2022-10-23T01:59:39;36.35;;;20.83;;
9773;SDS011;4926;42.670;23.316;2022-10-23T02:02:09;32.00;;;20.40;;
9773;SDS011;4926;42.670;23.316;2022-10-23T02:04:44;26.63;;;19.90;;
9773;SDS011;4926;42.670;23.316;2022-10-23T02:07:14;30.23;;;19.35;;
9773;SDS011;4926;42.670;23.316;2022-10-23T02:09:41;25.10;;;18.70;;
9773;SDS011;4926;42.670;23.316;2022-10-23T02:12:12;28.33;;;19.02;;
9773;SDS011;4926;42.670;23.316;2022-10-23T02:14:48;25.27;;;18.63;;
9773;SDS011;4926;42.670;23.316;2022-10-23T02:17:20;23.00;;;16.85;;
9773;SDS011;4926;42.670;23.316;2022-10-23T02:19:54;25.40;;;17.80;;
9773;SDS011;4926;42.670;23.316;2022-10-23T02:22:28;27.08;;;17.42;;
9773;SDS011;4926;42.670;23.316;2022-10-23T02:25:02;25.60;;;17.42;;
9773;SDS011;4926;42.670;23.316;2022-10-23T02:27:35;24.20;;;16.88;;
9773;SDS011;4926;42.670;23.316;2022-10-23T02:30:07;24.60;;;17.90;;
9773;SDS011;4926;42.670;23.316;2022-10-23T02:32:40;23.48;;;16.35;;
9773;SDS011;4926;42.670;23.316;2022-10-23T02:35:10;23.83;;;16.05;;
9773;SDS011;4926;42.670;23.316;2022-10-23T02:37:38;20.73;;;16.30;;
9773;SDS011;4926;42.670;23.316;2022-10-23T02:40:05;22.67;;;16.50;;
9773;SDS011;4926;42.670;23.316;2022-10-23T02:45:23;23.20;;;15.35;;
9773;SDS011;4926;42.670;23.316;2022-10-23T02:47:57;20.23;;;15.38;;
9773;SDS011;4926;42.670;23.316;2022-10-23T02:50:28;20.70;;;15.43;;
9773;SDS011;4926;42.670;23.316;2022-10-23T02:53:06;21.83;;;15.73;;
9773;SDS011;4926;42.670;23.316;2022-10-23T02:55:43;21.45;;;14.63;;
9773;SDS011;4926;42.670;23.316;2022-10-23T02:58:23;18.92;;;14.13;;
9773;SDS011;4926;42.670;23.316;2022-10-23T03:01:00;20.20;;;14.88;;
9773;SDS011;4926;42.670;23.316;2022-10-23T03:03:31;21.45;;;14.18;;
9773;SDS011;4926;42.670;23.316;2022-10-23T03:06:00;21.00;;;14.18;;
9773;SDS011;4926;42.670;23.316;2022-10-23T03:08:27;20.95;;;14.55;;
9773;SDS011;4926;42.670;23.316;2022-10-23T03:10:54;20.33;;;13.88;;
9773;SDS011;4926;42.670;23.316;2022-10-23T03:13:24;15.95;;;13.27;;
9773;SDS011;4926;42.670;23.316;2022-10-23T03:15:51;16.75;;;13.00;;
9773;SDS011;4926;42.670;23.316;2022-10-23T03:18:22;21.40;;;13.85;;
9773;SDS011;4926;42.670;23.316;2022-10-23T03:20:48;18.42;;;13.63;;
9773;SDS011;4926;42.670;23.316;2022-10-23T03:23:15;17.48;;;13.63;;
9773;SDS011;4926;42.670;23.316;2022-10-23T03:25:42;18.48;;;13.05;;
9773;SDS011;4926;42.670;23.316;2022-10-23T03:28:09;22.20;;;13.98;;
9773;SDS011;4926;42.670;23.316;2022-10-23T03:30:38;17.38;;;13.35;;
9773;SDS011;4926;42.670;23.316;2022-10-23T03:33:07;20.40;;;13.75;;
9773;SDS011;4926;42.670;23.316;2022-10-23T03:35:35;18.75;;;13.45;;
9773;SDS011;4926;42.670;23.316;2022-10-23T03:38:02;23.10;;;13.88;;
9773;SDS011;4926;42.670;23.316;2022-10-23T03:40:28;17.08;;;12.88;;
9773;SDS011;4926;42.670;23.316;2022-10-23T03:42:55;18.13;;;13.63;;
9773;SDS011;4926;42.670;23.316;2022-10-23T03:45:22;22.02;;;14.13;;
9773;SDS011;4926;42.670;23.316;2022-10-23T03:47:49;22.63;;;15.15;;
9773;SDS011;4926;42.670;23.316;2022-10-23T03:50:16;20.95;;;13.65;;
9773;SDS011;4926;42.670;23.316;2022-10-23T03:52:47;19.33;;;13.18;;
9773;SDS011;4926;42.670;23.316;2022-10-23T03:55:13;23.60;;;13.73;;
9773;SDS011;4926;42.670;23.316;2022-10-23T03:57:40;19.55;;;13.30;;
9773;SDS011;4926;42.670;23.316;2022-10-23T04:00:12;17.65;;;11.82;;
9773;SDS011;4926;42.670;23.316;2022-10-23T04:02:40;16.88;;;10.60;;
9773;SDS011;4926;42.670;23.316;2022-10-23T04:05:06;20.48;;;12.55;;
9773;SDS011;4926;42.670;23.316;2022-10-23T04:07:33;15.13;;;10.45;;
9773;SDS011;4926;42.670;23.316;2022-10-23T04:10:02;14.00;;;9.45;;
9773;SDS011;4926;42.670;23.316;2022-10-23T04:12:30;16.27;;;8.90;;
9773;SDS011;4926;42.670;23.316;2022-10-23T04:14:57;16.73;;;7.65;;
9773;SDS011;4926;42.670;23.316;2022-10-23T04:17:28;8.90;;;7.32;;
9773;SDS011;4926;42.670;23.316;2022-10-23T04:19:58;10.38;;;7.05;;
9773;SDS011;4926;42.670;23.316;2022-10-23T04:22:26;11.32;;;6.55;;
9773;SDS011;4926;42.670;23.316;2022-10-23T04:24:53;8.32;;;6.00;;
9773;SDS011;4926;42.670;23.316;2022-10-23T04:27:21;11.52;;;6.22;;
9773;SDS011;4926;42.670;23.316;2022-10-23T04:29:47;10.50;;;6.28;;
9773;SDS011;4926;42.670;23.316;2022-10-23T04:32:14;12.45;;;6.05;;
9773;SDS011;4926;42.670;23.316;2022-10-23T04:34:41;10.60;;;6.30;;
9773;SDS011;4926;42.670;23.316;2022-10-23T04:37:08;7.55;;;5.70;;
9773;SDS011;4926;42.670;23.316;2022-10-23T04:39:34;8.93;;;5.93;;
9773;SDS011;4926;42.670;23.316;2022-10-23T04:42:01;7.78;;;5.18;;
9773;SDS011;4926;42.670;23.316;2022-10-23T04:44:29;9.73;;;5.38;;
9773;SDS011;4926;42.670;23.316;2022-10-23T04:46:56;6.90;;;5.03;;
9773;SDS011;4926;42.670;23.316;2022-10-23T04:49:23;7.63;;;5.22;;
9773;SDS011;4926;42.670;23.316;2022-10-23T04:51:50;9.98;;;5.35;;
9773;SDS011;4926;42.670;23.316;2022-10-23T04:54:16;8.18;;;5.20;;
9773;SDS011;4926;42.670;23.316;2022-10-23T04:56:43;7.55;;;5.07;;
9773;SDS011;4926;42.670;23.316;2022-10-23T04:59:11;7.55;;;5.65;;
9773;SDS011;4926;42.670;23.316;2022-10-23T05:01:40;12.10;;;5.50;;
9773;SDS011;4926;42.670;23.316;2022-10-23T05:04:06;9.60;;;4.90;;
9773;SDS011;4926;42.670;23.316;2022-10-23T05:06:33;7.05;;;5.07;;
9773;SDS011;4926;42.670;23.316;2022-10-23T05:09:00;10.48;;;5.82;;
9773;SDS011;4926;42.670;23.316;2022-10-23T05:11:27;6.03;;;4.60;;
9773;SDS011;4926;42.670;23.316;2022-10-23T05:13:53;8.38;;;5.20;;
9773;SDS011;4926;42.670;23.316;2022-10-23T05:16:25;11.88;;;6.53;;
9773;SDS011;4926;42.670;23.316;2022-10-23T05:19:00;9.45;;;6.22;;
9773;SDS011;4926;42.670;23.316;2022-10-23T05:21:28;10.25;;;6.35;;
9773;SDS011;4926;42.670;23.316;2022-10-23T05:23:59;12.63;;;6.90;;
9773;SDS011;4926;42.670;23.316;2022-10-23T05:26:30;8.85;;;5.90;;
9773;SDS011;4926;42.670;23.316;2022-10-23T05:28:57;9.55;;;6.50;;
9773;SDS011;4926;42.670;23.316;2022-10-23T05:31:24;7.32;;;5.18;;
9773;SDS011;4926;42.670;23.316;2022-10-23T05:33:56;14.18;;;6.75;;
9773;SDS011;4926;42.670;23.316;2022-10-23T05:36:25;9.07;;;6.15;;
9773;SDS011;4926;42.670;23.316;2022-10-23T05:38:52;11.93;;;5.82;;
9773;SDS011;4926;42.670;23.316;2022-10-23T05:41:22;8.45;;;5.50;;
9773;SDS011;4926;42.670;23.316;2022-10-23T05:43:51;10.50;;;5.40;;
9773;SDS011;4926;42.670;23.316;2022-10-23T05:46:18;8.85;;;6.07;;
9773;SDS011;4926;42.670;23.316;2022-10-23T05:48:48;9.02;;;5.32;;
9773;SDS011;4926;42.670;23.316;2022-10-23T05:51:17;10.57;;;5.45;;
9773;SDS011;4926;42.670;23.316;2022-10-23T05:53:47;12.30;;;5.22;;
9773;SDS011;4926;42.670;23.316;2022-10-23T05:56:14;10.98;;;5.20;;
9773;SDS011;4926;42.670;23.316;2022-10-23T05:58:41;9.00;;;5.60;;
9773;SDS011;4926;42.670;23.316;2022-10-23T06:01:12;11.40;;;5.70;;
9773;SDS011;4926;42.670;23.316;2022-10-23T06:03:42;8.90;;;4.85;;
9773;SDS011;4926;42.670;23.316;2022-10-23T06:06:11;8.18;;;5.10;;
9773;SDS011;4926;42.670;23.316;2022-10-23T06:08:38;10.98;;;5.30;;
9773;SDS011;4926;42.670;23.316;2022-10-23T06:11:10;8.70;;;5.25;;
9773;SDS011;4926;42.670;23.316;2022-10-23T06:13:38;10.02;;;5.93;;
9773;SDS011;4926;42.670;23.316;2022-10-23T06:16:08;8.95;;;5.70;;
9773;SDS011;4926;42.670;23.316;2022-10-23T06:18:36;8.55;;;5.60;;
9773;SDS011;4926;42.670;23.316;2022-10-23T06:21:02;7.55;;;5.18;;
9773;SDS011;4926;42.670;23.316;2022-10-23T06:23:29;10.20;;;5.57;;
9773;SDS011;4926;42.670;23.316;2022-10-23T06:25:57;7.40;;;5.25;;
9773;SDS011;4926;42.670;23.316;2022-10-23T06:28:33;7.97;;;5.38;;
9773;SDS011;4926;42.670;23.316;2022-10-23T06:31:02;8.07;;;5.30;;
9773;SDS011;4926;42.670;23.316;2022-10-23T06:33:32;10.57;;;5.68;;
9773;SDS011;4926;42.670;23.316;2022-10-23T06:36:02;7.70;;;5.45;;
9773;SDS011;4926;42.670;23.316;2022-10-23T06:38:32;5.97;;;4.75;;
9773;SDS011;4926;42.670;23.316;2022-10-23T06:41:01;8.77;;;5.25;;
9773;SDS011;4926;42.670;23.316;2022-10-23T06:43:33;9.15;;;4.93;;
9773;SDS011;4926;42.670;23.316;2022-10-23T06:46:00;6.97;;;4.93;;
9773;SDS011;4926;42.670;23.316;2022-10-23T06:48:27;8.13;;;5.15;;
9773;SDS011;4926;42.670;23.316;2022-10-23T06:50:54;7.57;;;4.95;;
9773;SDS011;4926;42.670;23.316;2022-10-23T06:53:21;6.60;;;4.97;;
9773;SDS011;4926;42.670;23.316;2022-10-23T06:55:49;7.32;;;5.25;;
9773;SDS011;4926;42.670;23.316;2022-10-23T06:58:15;6.55;;;4.88;;
9773;SDS011;4926;42.670;23.316;2022-10-23T07:00:44;7.80;;;5.18;;
9773;SDS011;4926;42.670;23.316;2022-10-23T07:03:10;10.65;;;5.32;;
9773;SDS011;4926;42.670;23.316;2022-10-23T07:05:40;7.60;;;5.03;;
9773;SDS011;4926;42.670;23.316;2022-10-23T07:08:08;9.18;;;5.22;;
9773;SDS011;4926;42.670;23.316;2022-10-23T07:10:35;7.25;;;5.20;;
9773;SDS011;4926;42.670;23.316;2022-10-23T07:13:04;9.20;;;5.15;;
9773;SDS011;4926;42.670;23.316;2022-10-23T07:15:31;7.22;;;4.75;;
9773;SDS011;4926;42.670;23.316;2022-10-23T07:17:59;6.93;;;4.93;;
9773;SDS011;4926;42.670;23.316;2022-10-23T07:20:26;6.15;;;5.43;;
9773;SDS011;4926;42.670;23.316;2022-10-23T07:22:53;8.02;;;5.45;;
9773;SDS011;4926;42.670;23.316;2022-10-23T07:25:23;11.85;;;6.22;;
9773;SDS011;4926;42.670;23.316;2022-10-23T07:27:52;7.38;;;5.20;;
9773;SDS011;4926;42.670;23.316;2022-10-23T07:30:20;9.35;;;5.93;;
9773;SDS011;4926;42.670;23.316;2022-10-23T07:32:51;8.93;;;5.88;;
9773;SDS011;4926;42.670;23.316;2022-10-23T07:35:21;7.65;;;5.28;;
9773;SDS011;4926;42.670;23.316;2022-10-23T07:37:48;10.70;;;5.50;;
9773;SDS011;4926;42.670;23.316;2022-10-23T07:40:15;7.03;;;4.82;;
9773;SDS011;4926;42.670;23.316;2022-10-23T07:42:42;13.75;;;6.20;;
9773;SDS011;4926;42.670;23.316;2022-10-23T07:45:12;7.20;;;4.70;;
9773;SDS011;4926;42.670;23.316;2022-10-23T07:47:41;6.03;;;4.43;;
9773;SDS011;4926;42.670;23.316;2022-10-23T07:50:08;5.20;;;4.28;;
9773;SDS011;4926;42.670;23.316;2022-10-23T07:52:36;8.48;;;4.55;;
9773;SDS011;4926;42.670;23.316;2022-10-23T07:55:05;7.82;;;5.50;;
9773;SDS011;4926;42.670;23.316;2022-10-23T07:57:32;8.80;;;4.95;;
9773;SDS011;4926;42.670;23.316;2022-10-23T08:00:01;7.38;;;5.47;;
9773;SDS011;4926;42.670;23.316;2022-10-23T08:02:31;8.13;;;4.85;;
9773;SDS011;4926;42.670;23.316;2022-10-23T08:04:58;6.88;;;4.57;;
9773;SDS011;4926;42.670;23.316;2022-10-23T08:07:30;8.18;;;4.38;;
9773;SDS011;4926;42.670;23.316;2022-10-23T08:09:58;6.28;;;4.28;;
9773;SDS011;4926;42.670;23.316;2022-10-23T08:12:25;9.43;;;4.75;;
9773;SDS011;4926;42.670;23.316;2022-10-23T08:14:52;9.00;;;4.90;;
9773;SDS011;4926;42.670;23.316;2022-10-23T08:17:19;6.15;;;4.00;;
9773;SDS011;4926;42.670;23.316;2022-10-23T08:19:53;5.85;;;3.88;;
9773;SDS011;4926;42.670;23.316;2022-10-23T08:22:20;5.78;;;4.35;;
9773;SDS011;4926;42.670;23.316;2022-10-23T08:24:49;7.47;;;4.55;;
9773;SDS011;4926;42.670;23.316;2022-10-23T08:27:17;6.22;;;4.38;;
9773;SDS011;4926;42.670;23.316;2022-10-23T08:29:44;6.03;;;4.55;;
9773;SDS011;4926;42.670;23.316;2022-10-23T08:32:13;7.15;;;4.20;;
9773;SDS011;4926;42.670;23.316;2022-10-23T08:34:40;5.30;;;4.22;;
9773;SDS011;4926;42.670;23.316;2022-10-23T08:37:07;6.35;;;4.22;;
9773;SDS011;4926;42.670;23.316;2022-10-23T08:39:33;4.97;;;3.72;;
9773;SDS011;4926;42.670;23.316;2022-10-23T08:42:01;5.63;;;3.53;;
9773;SDS011;4926;42.670;23.316;2022-10-23T08:44:31;4.82;;;3.50;;
9773;SDS011;4926;42.670;23.316;2022-10-23T08:47:02;6.03;;;3.42;;
9773;SDS011;4926;42.670;23.316;2022-10-23T08:49:39;6.13;;;3.72;;
9773;SDS011;4926;42.670;23.316;2022-10-23T08:52:12;4.72;;;3.45;;
9773;SDS011;4926;42.670;23.316;2022-10-23T08:54:53;5.97;;;3.50;;
9773;SDS011;4926;42.670;23.316;2022-10-23T08:57:29;7.57;;;4.05;;
9773;SDS011;4926;42.670;23.316;2022-10-23T09:00:02;4.32;;;3.38;;
9773;SDS011;4926;42.670;23.316;2022-10-23T09:02:33;4.25;;;3.50;;
9773;SDS011;4926;42.670;23.316;2022-10-23T09:05:05;5.18;;;3.83;;
9773;SDS011;4926;42.670;23.316;2022-10-23T09:07:42;4.32;;;3.78;;
9773;SDS011;4926;42.670;23.316;2022-10-23T09:10:36;5.38;;;4.00;;
9773;SDS011;4926;42.670;23.316;2022-10-23T09:13:23;6.50;;;3.75;;
9773;SDS011;4926;42.670;23.316;2022-10-23T09:16:21;6.38;;;4.22;;
9773;SDS011;4926;42.670;23.316;2022-10-23T09:19:04;8.85;;;3.95;;
9773;SDS011;4926;42.670;23.316;2022-10-23T09:21:37;8.60;;;3.33;;
9773;SDS011;4926;42.670;23.316;2022-10-23T09:24:03;5.75;;;3.75;;
9773;SDS011;4926;42.670;23.316;2022-10-23T09:26:30;4.10;;;3.28;;
9773;SDS011;4926;42.670;23.316;2022-10-23T09:29:01;5.15;;;3.42;;
9773;SDS011;4926;42.670;23.316;2022-10-23T09:31:47;4.53;;;3.17;;
9773;SDS011;4926;42.670;23.316;2022-10-23T09:34:17;5.97;;;3.20;;
9773;SDS011;4926;42.670;23.316;2022-10-23T09:36:47;5.50;;;3.78;;
9773;SDS011;4926;42.670;23.316;2022-10-23T09:39:25;4.63;;;3.63;;
9773;SDS011;4926;42.670;23.316;2022-10-23T09:41:52;4.38;;;3.55;;
9773;SDS011;4926;42.670;23.316;2022-10-23T09:44:25;2.92;;;2.60;;
9773;SDS011;4926;42.670;23.316;2022-10-23T09:46:57;3.67;;;3.28;;
9773;SDS011;4926;42.670;23.316;2022-10-23T09:49:37;4.32;;;3.00;;
9773;SDS011;4926;42.670;23.316;2022-10-23T09:52:18;2.55;;;2.35;;
9773;SDS011;4926;42.670;23.316;2022-10-23T09:54:49;3.92;;;3.03;;
9773;SDS011;4926;42.670;23.316;2022-10-23T09:57:22;5.35;;;3.33;;
9773;SDS011;4926;42.670;23.316;2022-10-23T10:00:00;3.60;;;2.60;;
9773;SDS011;4926;42.670;23.316;2022-10-23T10:02:54;3.58;;;2.67;;
9773;SDS011;4926;42.670;23.316;2022-10-23T10:05:27;2.90;;;2.63;;
9773;SDS011;4926;42.670;23.316;2022-10-23T10:07:55;2.42;;;2.15;;
9773;SDS011;4926;42.670;23.316;2022-10-23T10:10:26;2.70;;;2.30;;
9773;SDS011;4926;42.670;23.316;2022-10-23T10:12:59;5.90;;;2.40;;
9773;SDS011;4926;42.670;23.316;2022-10-23T10:15:32;3.13;;;2.40;;
9773;SDS011;4926;42.670;23.316;2022-10-23T10:18:10;5.85;;;2.50;;
9773;SDS011;4926;42.670;23.316;2022-10-23T10:20:46;2.92;;;2.40;;
9773;SDS011;4926;42.670;23.316;2022-10-23T10:23:27;3.80;;;2.40;;
9773;SDS011;4926;42.670;23.316;2022-10-23T10:26:06;4.18;;;2.17;;
9773;SDS011;4926;42.670;23.316;2022-10-23T10:28:46;4.07;;;2.42;;
9773;SDS011;4926;42.670;23.316;2022-10-23T10:31:25;2.80;;;2.05;;
9773;SDS011;4926;42.670;23.316;2022-10-23T10:34:03;3.05;;;2.10;;
9773;SDS011;4926;42.670;23.316;2022-10-23T10:36:41;2.33;;;1.92;;
9773;SDS011;4926;42.670;23.316;2022-10-23T10:39:18;2.53;;;2.30;;
9773;SDS011;4926;42.670;23.316;2022-10-23T10:41:54;2.00;;;1.80;;
9773;SDS011;4926;42.670;23.316;2022-10-23T10:44:38;1.95;;;1.80;;
9773;SDS011;4926;42.670;23.316;2022-10-23T10:47:17;2.92;;;2.22;;
9773;SDS011;4926;42.670;23.316;2022-10-23T10:49:54;2.35;;;2.00;;
9773;SDS011;4926;42.670;23.316;2022-10-23T10:52:32;3.47;;;2.23;;
9773;SDS011;4926;42.670;23.316;2022-10-23T10:55:09;8.63;;;2.33;;
9773;SDS011;4926;42.670;23.316;2022-10-23T10:57:43;3.45;;;2.40;;
9773;SDS011;4926;42.670;23.316;2022-10-23T11:00:15;5.72;;;2.42;;
9773;SDS011;4926;42.670;23.316;2022-10-23T11:02:44;4.25;;;2.35;;
9773;SDS011;4926;42.670;23.316;2022-10-23T11:05:20;2.92;;;2.30;;
9773;SDS011;4926;42.670;23.316;2022-10-23T11:07:54;2.95;;;2.25;;
9773;SDS011;4926;42.670;23.316;2022-10-23T11:10:26;4.45;;;2.25;;
9773;SDS011;4926;42.670;23.316;2022-10-23T11:12:54;5.15;;;2.65;;
9773;SDS011;4926;42.670;23.316;2022-10-23T11:15:22;4.88;;;2.17;;
9773;SDS011;4926;42.670;23.316;2022-10-23T11:17:57;3.80;;;2.65;;
9773;SDS011;4926;42.670;23.316;2022-10-23T11:20:37;3.38;;;2.20;;
9773;SDS011;4926;42.670;23.316;2022-10-23T11:23:21;3.85;;;2.42;;
9773;SDS011;4926;42.670;23.316;2022-10-23T11:26:08;4.93;;;2.40;;
9773;SDS011;4926;42.670;23.316;2022-10-23T11:28:51;2.30;;;2.10;;
9773;SDS011;4926;42.670;23.316;2022-10-23T11:31:42;3.05;;;2.35;;
9773;SDS011;4926;42.670;23.316;2022-10-23T11:34:33;2.58;;;2.38;;
9773;SDS011;4926;42.670;23.316;2022-10-23T11:37:21;4.22;;;2.92;;
9773;SDS011;4926;42.670;23.316;2022-10-23T11:42:45;4.80;;;2.33;;
9773;SDS011;4926;42.670;23.316;2022-10-23T11:45:27;2.60;;;2.33;;
9773;SDS011;4926;42.670;23.316;2022-10-23T11:47:56;4.75;;;2.38;;
9773;SDS011;4926;42.670;23.316;2022-10-23T11:50:25;3.35;;;2.70;;
9773;SDS011;4926;42.670;23.316;2022-10-23T11:52:56;2.72;;;2.17;;
9773;SDS011;4926;42.670;23.316;2022-10-23T11:55:25;2.60;;;2.40;;
9773;SDS011;4926;42.670;23.316;2022-10-23T11:58:07;2.33;;;2.13;;
9773;SDS011;4926;42.670;23.316;2022-10-23T12:00:39;3.90;;;2.17;;
9773;SDS011;4926;42.670;23.316;2022-10-23T12:03:18;4.60;;;2.30;;
9773;SDS011;4926;42.670;23.316;2022-10-23T12:05:53;3.67;;;2.40;;
9773;SDS011;4926;42.670;23.316;2022-10-23T12:08:24;2.38;;;2.17;;
9773;SDS011;4926;42.670;23.316;2022-10-23T12:10:53;3.08;;;2.47;;
9773;SDS011;4926;42.670;23.316;2022-10-23T12:13:28;2.42;;;2.08;;
9773;SDS011;4926;42.670;23.316;2022-10-23T12:15:57;6.93;;;2.22;;
9773;SDS011;4926;42.670;23.316;2022-10-23T12:18:26;4.57;;;2.00;;
9773;SDS011;4926;42.670;23.316;2022-10-23T12:20:54;3.80;;;2.42;;
9773;SDS011;4926;42.670;23.316;2022-10-23T12:23:37;1.92;;;1.80;;
9773;SDS011;4926;42.670;23.316;2022-10-23T12:26:41;2.38;;;2.17;;
9773;SDS011;4926;42.670;23.316;2022-10-23T12:29:18;2.40;;;1.80;;
9773;SDS011;4926;42.670;23.316;2022-10-23T12:31:54;2.90;;;2.00;;
9773;SDS011;4926;42.670;23.316;2022-10-23T12:34:34;2.15;;;1.83;;
9773;SDS011;4926;42.670;23.316;2022-10-23T12:37:19;2.58;;;2.22;;
9773;SDS011;4926;42.670;23.316;2022-10-23T12:40:06;2.95;;;1.83;;
9773;SDS011;4926;42.670;23.316;2022-10-23T12:42:34;3.42;;;2.13;;
9773;SDS011;4926;42.670;23.316;2022-10-23T12:45:03;2.53;;;2.28;;
9773;SDS011;4926;42.670;23.316;2022-10-23T12:47:41;2.38;;;2.00;;
9773;SDS011;4926;42.670;23.316;2022-10-23T12:50:15;1.90;;;1.80;;
9773;SDS011;4926;42.670;23.316;2022-10-23T12:52:49;3.08;;;2.33;;
9773;SDS011;4926;42.670;23.316;2022-10-23T12:55:18;2.45;;;2.25;;
9773;SDS011;4926;42.670;23.316;2022-10-23T12:57:51;3.55;;;2.10;;
9773;SDS011;4926;42.670;23.316;2022-10-23T13:00:21;2.53;;;1.90;;
9773;SDS011;4926;42.670;23.316;2022-10-23T13:02:59;1.65;;;1.55;;
9773;SDS011;4926;42.670;23.316;2022-10-23T13:05:27;4.75;;;1.80;;
9773;SDS011;4926;42.670;23.316;2022-10-23T13:07:55;2.47;;;1.80;;
9773;SDS011;4926;42.670;23.316;2022-10-23T13:10:26;2.05;;;1.50;;
9773;SDS011;4926;42.670;23.316;2022-10-23T13:12:53;2.72;;;2.03;;
9773;SDS011;4926;42.670;23.316;2022-10-23T13:15:22;1.83;;;1.60;;
9773;SDS011;4926;42.670;23.316;2022-10-23T13:18:00;2.22;;;1.67;;
9773;SDS011;4926;42.670;23.316;2022-10-23T13:20:29;2.35;;;1.67;;
9773;SDS011;4926;42.670;23.316;2022-10-23T13:22:59;3.83;;;1.42;;
9773;SDS011;4926;42.670;23.316;2022-10-23T13:25:36;2.72;;;1.70;;
9773;SDS011;4926;42.670;23.316;2022-10-23T13:28:14;3.40;;;1.65;;
9773;SDS011;4926;42.670;23.316;2022-10-23T13:30:56;1.85;;;1.58;;
9773;SDS011;4926;42.670;23.316;2022-10-23T13:33:25;4.28;;;2.15;;
9773;SDS011;4926;42.670;23.316;2022-10-23T13:35:57;3.53;;;2.38;;
9773;SDS011;4926;42.670;23.316;2022-10-23T13:38:28;2.83;;;2.33;;
9773;SDS011;4926;42.670;23.316;2022-10-23T13:40:59;3.83;;;2.10;;
9773;SDS011;4926;42.670;23.316;2022-10-23T13:43:26;2.78;;;2.00;;
9773;SDS011;4926;42.670;23.316;2022-10-23T13:45:59;2.10;;;1.80;;
9773;SDS011;4926;42.670;23.316;2022-10-23T13:48:26;2.45;;;1.90;;
9773;SDS011;4926;42.670;23.316;2022-10-23T13:50:55;2.50;;;2.03;;
9773;SDS011;4926;42.670;23.316;2022-10-23T13:53:26;1.90;;;1.80;;
9773;SDS011;4926;42.670;23.316;2022-10-23T13:55:54;8.10;;;2.30;;
9773;SDS011;4926;42.670;23.316;2022-10-23T13:58:25;2.65;;;2.38;;
9773;SDS011;4926;42.670;23.316;2022-10-23T14:00:52;2.97;;;1.77;;
9773;SDS011;4926;42.670;23.316;2022-10-23T14:03:19;2.70;;;1.92;;
9773;SDS011;4926;42.670;23.316;2022-10-23T14:05:53;3.92;;;2.10;;
9773;SDS011;4926;42.670;23.316;2022-10-23T14:08:20;3.40;;;2.20;;
9773;SDS011;4926;42.670;23.316;2022-10-23T14:10:47;2.88;;;2.05;;
9773;SDS011;4926;42.670;23.316;2022-10-23T14:13:14;2.33;;;1.98;;
9773;SDS011;4926;42.670;23.316;2022-10-23T14:15:43;2.47;;;1.70;;
9773;SDS011;4926;42.670;23.316;2022-10-23T14:18:09;2.80;;;1.85;;
9773;SDS011;4926;42.670;23.316;2022-10-23T14:20:39;2.25;;;1.90;;
9773;SDS011;4926;42.670;23.316;2022-10-23T14:23:06;2.90;;;1.98;;
9773;SDS011;4926;42.670;23.316;2022-10-23T14:25:35;5.32;;;2.08;;
9773;SDS011;4926;42.670;23.316;2022-10-23T14:28:02;2.50;;;2.30;;
9773;SDS011;4926;42.670;23.316;2022-10-23T14:30:28;1.95;;;1.85;;
9773;SDS011;4926;42.670;23.316;2022-10-23T14:32:57;3.55;;;2.00;;
9773;SDS011;4926;42.670;23.316;2022-10-23T14:35:23;2.83;;;1.98;;
9773;SDS011;4926;42.670;23.316;2022-10-23T14:37:51;2.22;;;2.03;;
9773;SDS011;4926;42.670;23.316;2022-10-23T14:40:17;3.65;;;2.38;;
9773;SDS011;4926;42.670;23.316;2022-10-23T14:42:44;3.60;;;2.40;;
9773;SDS011;4926;42.670;23.316;2022-10-23T14:45:11;2.47;;;2.20;;
9773;SDS011;4926;42.670;23.316;2022-10-23T14:47:43;3.22;;;2.58;;
9773;SDS011;4926;42.670;23.316;2022-10-23T14:50:12;2.80;;;2.40;;
9773;SDS011;4926;42.670;23.316;2022-10-23T14:52:39;3.47;;;2.53;;
9773;SDS011;4926;42.670;23.316;2022-10-23T14:55:06;3.00;;;2.47;;
9773;SDS011;4926;42.670;23.316;2022-10-23T14:57:33;3.53;;;2.25;;
9773;SDS011;4926;42.670;23.316;2022-10-23T15:00:02;3.60;;;2.70;;
9773;SDS011;4926;42.670;23.316;2022-10-23T15:02:32;2.80;;;2.50;;
9773;SDS011;4926;42.670;23.316;2022-10-23T15:05:05;3.35;;;2.83;;
9773;SDS011;4926;42.670;23.316;2022-10-23T15:07:34;4.70;;;2.70;;
9773;SDS011;4926;42.670;23.316;2022-10-23T15:10:01;4.13;;;2.58;;
9773;SDS011;4926;42.670;23.316;2022-10-23T15:12:28;3.42;;;2.53;;
9773;SDS011;4926;42.670;23.316;2022-10-23T15:14:54;2.88;;;2.50;;
9773;SDS011;4926;42.670;23.316;2022-10-23T15:17:21;4.25;;;3.03;;
9773;SDS011;4926;42.670;23.316;2022-10-23T15:19:48;4.55;;;2.33;;
9773;SDS011;4926;42.670;23.316;2022-10-23T15:22:17;3.40;;;2.78;;
9773;SDS011;4926;42.670;23.316;2022-10-23T15:24:46;4.05;;;3.13;;
9773;SDS011;4926;42.670;23.316;2022-10-23T15:27:16;4.63;;;2.90;;
9773;SDS011;4926;42.670;23.316;2022-10-23T15:29:43;2.95;;;2.65;;